Time;durP1;ratioP1;P1;durP2;ratioP2;P2;SDS_P1;SDS_P2;PMS_P1;PMS_P2;Temp;Humidity;BMP_temperature;BMP_pressure;BME280_temperature;BME280_humidity;BME280_pressure;Samples;Min_cycle;Max_cycle;Signal;HPM_P1;HPM_P2
2022/10/13 00:02:21;;;;;;;2.20;1.27;;;;;;;-143.84;63.71;45090.97;5129494;28;20448;-74
2022/10/13 00:04:48;;;;;;;3.53;1.20;;;;;;;-143.84;63.72;45136.66;5129284;28;21006;-74
2022/10/13 00:07:15;;;;;;;8.20;1.47;;;;;;;-143.84;63.83;45121.44;5129443;28;20453;-74
2022/10/13 00:09:43;;;;;;;6.93;0.97;;;;;;;-143.84;63.96;45096.66;5129549;28;20441;-75
2022/10/13 00:12:10;;;;;;;3.27;1.20;;;;;;;-143.84;63.96;45100.47;5129557;28;20522;-74
2022/10/13 00:14:37;;;;;;;1.63;1.17;;;;;;;-143.84;64.13;45090.97;5129550;28;20441;-75
2022/10/13 00:17:05;;;;;;;2.07;1.60;;;;;;;-143.84;64.31;45100.47;5124986;28;20459;-75
2022/10/13 00:19:33;;;;;;;4.70;1.00;;;;;;;-143.84;64.36;45110.00;5108850;28;20446;-75
2022/10/13 00:22:00;;;;;;;2.30;1.13;;;;;;;-143.84;64.41;45106.19;5108768;28;20438;-74
2022/10/13 00:24:27;;;;;;;4.70;1.60;;;;;;;-143.84;64.51;45096.66;5108841;28;20435;-74
2022/10/13 00:26:55;;;;;;;3.00;1.17;;;;;;;-143.84;64.60;45113.81;5108827;28;20503;-74
2022/10/13 00:29:22;;;;;;;1.23;1.10;;;;;;;-143.84;64.65;45110.00;5108677;28;20435;-74
2022/10/13 00:31:49;;;;;;;1.20;1.10;;;;;;;-143.84;64.72;45092.88;5109131;28;20830;-74
2022/10/13 00:34:17;;;;;;;3.03;1.27;;;;;;;-143.84;64.75;45104.28;5108880;28;20540;-74
2022/10/13 00:36:44;;;;;;;1.87;1.20;;;;;;;-143.84;64.74;45115.72;5108768;28;20446;-74
2022/10/13 00:39:13;;;;;;;3.50;1.53;;;;;;;-143.84;64.79;45113.81;5108727;28;20467;-74
2022/10/13 00:41:40;;;;;;;1.30;1.17;;;;;;;-143.84;64.97;45108.09;5108868;28;20446;-74
2022/10/13 00:44:46;;;;;;;1.97;1.23;;;;;;;-143.84;65.10;45110.00;5108545;28;20462;-74
2022/10/13 00:47:13;;;;;;;1.47;1.37;;;;;;;-143.84;65.14;45108.09;5108474;28;20441;-74
2022/10/13 00:49:42;;;;;;;2.43;1.03;;;;;;;-143.84;65.31;45096.66;5110374;28;20979;-74
2022/10/13 00:52:10;;;;;;;3.43;1.30;;;;;;;-143.84;65.42;45104.28;5111994;28;20477;-74
2022/10/13 00:54:37;;;;;;;1.40;1.20;;;;;;;-143.84;65.54;45083.34;5111762;28;21007;-74
2022/10/13 00:57:08;;;;;;;3.03;1.30;;;;;;;-143.84;65.41;45121.44;5111946;28;20447;-74
2022/10/13 00:59:36;;;;;;;2.70;0.87;;;;;;;-143.84;65.62;45117.63;5111960;28;21093;-74
2022/10/13 01:02:04;;;;;;;1.10;0.80;;;;;;;-143.84;65.62;45123.34;5110976;28;20430;-74
2022/10/13 01:04:36;;;;;;;2.03;1.40;;;;;;;-143.84;65.82;45100.47;5111389;28;20543;-74
2022/10/13 01:07:06;;;;;;;1.10;1.00;;;;;;;-143.84;65.96;45111.91;5112262;28;20459;-74
2022/10/13 01:09:36;;;;;;;4.83;1.03;;;;;;;-143.84;65.99;45098.56;5112169;28;20452;-74
2022/10/13 01:12:13;;;;;;;1.47;1.00;;;;;;;-143.84;66.13;45111.91;5111812;28;20885;-74
2022/10/13 01:14:49;;;;;;;1.20;1.00;;;;;;;-143.84;66.28;45125.22;5111254;28;20445;-74
2022/10/13 01:17:24;;;;;;;2.57;1.50;;;;;;;-143.84;66.16;45121.44;5111301;28;20960;-74
2022/10/13 01:20:23;;;;;;;3.40;1.53;;;;;;;-143.84;66.43;45119.53;5111425;28;20446;-74
2022/10/13 01:23:08;;;;;;;1.50;1.40;;;;;;;-143.84;66.21;45117.63;5105028;28;20454;-74
2022/10/13 01:25:52;;;;;;;2.43;1.50;;;;;;;-143.84;66.36;45108.09;5111438;28;20439;-74
2022/10/13 01:28:35;;;;;;;7.87;1.50;;;;;;;-143.84;66.42;45115.72;5111693;28;20901;-74
2022/10/13 01:31:13;;;;;;;4.50;1.20;;;;;;;-143.84;66.13;45085.25;5111369;28;20482;-74
2022/10/13 01:33:45;;;;;;;2.13;1.10;;;;;;;-143.84;66.43;45100.47;5111431;28;20514;-74
2022/10/13 01:36:21;;;;;;;1.93;1.40;;;;;;;-143.84;66.38;45111.91;5111469;28;20453;-74
2022/10/13 01:38:58;;;;;;;6.30;1.33;;;;;;;-143.84;66.53;45110.00;5111549;28;20476;-74
2022/10/13 01:41:29;;;;;;;9.93;0.90;;;;;;;-143.84;66.46;45138.56;5111641;28;20451;-74
2022/10/13 01:44:05;;;;;;;1.40;1.13;;;;;;;-143.84;66.59;45111.91;5111622;28;20444;-73
2022/10/13 01:46:36;;;;;;;1.70;1.17;;;;;;;-143.84;66.54;45104.28;5111583;28;20438;-73
2022/10/13 01:49:12;;;;;;;8.83;1.17;;;;;;;-143.84;66.43;45129.03;5111460;28;20598;-73
2022/10/13 01:51:43;;;;;;;3.37;1.13;;;;;;;-143.84;66.51;45089.06;5110516;28;20485;-74
2022/10/13 01:54:10;;;;;;;1.87;1.10;;;;;;;-143.84;66.44;45094.78;5111324;28;20447;-73
2022/10/13 01:56:39;;;;;;;2.63;1.20;;;;;;;-143.84;66.35;45098.56;5111157;28;20453;-74
2022/10/13 01:59:11;;;;;;;1.57;1.37;;;;;;;-143.84;66.64;45113.81;5109284;28;20439;-74
2022/10/13 02:01:56;;;;;;;3.10;1.50;;;;;;;-143.84;66.46;45106.19;5110781;28;20487;-74
2022/10/13 02:04:33;;;;;;;2.00;1.10;;;;;;;-143.84;66.38;45111.91;5111281;28;20481;-74
2022/10/13 02:07:08;;;;;;;4.60;1.30;;;;;;;-143.84;66.43;45092.88;5112332;28;20777;-74
2022/10/13 02:09:44;;;;;;;2.63;1.20;;;;;;;-143.84;66.42;45132.84;5111236;28;21011;-75
2022/10/13 02:12:18;;;;;;;1.63;1.10;;;;;;;-143.84;66.51;45123.34;5111415;28;20520;-75
2022/10/13 02:14:47;;;;;;;4.30;1.27;;;;;;;-143.84;66.70;45102.38;5111027;28;20499;-73
2022/10/13 02:17:17;;;;;;;1.70;1.60;;;;;;;-143.84;66.74;45102.38;5114112;27;20885;-74
2022/10/13 02:19:45;;;;;;;4.73;1.13;;;;;;;-143.84;66.71;45102.38;5110448;28;20443;-74
2022/10/13 02:22:16;;;;;;;1.83;0.97;;;;;;;-143.84;66.85;45117.63;5110291;28;20865;-74
2022/10/13 02:24:43;;;;;;;1.73;1.00;;;;;;;-143.84;66.91;45085.25;5110540;28;20434;-73
2022/10/13 02:27:10;;;;;;;5.80;1.10;;;;;;;-143.84;66.87;45127.13;5110482;28;20453;-74
2022/10/13 02:29:49;;;;;;;1.93;1.43;;;;;;;-143.84;66.98;45104.28;5110560;28;20443;-74
2022/10/13 02:32:18;;;;;;;3.97;1.20;;;;;;;-143.84;66.94;45115.72;5109735;28;20481;-74
2022/10/13 02:34:45;;;;;;;4.97;1.50;;;;;;;-143.84;67.13;45092.88;5109833;28;20591;-74
2022/10/13 02:37:12;;;;;;;1.13;1.03;;;;;;;-143.84;67.16;45079.53;5109606;28;20487;-74
2022/10/13 02:39:40;;;;;;;1.50;1.40;;;;;;;-143.84;67.10;45111.91;5109360;28;20451;-74
2022/10/13 02:42:07;;;;;;;2.50;1.43;;;;;;;-143.84;67.11;45111.91;5110209;28;20503;-74
2022/10/13 02:44:34;;;;;;;2.80;1.53;;;;;;;-143.84;67.01;45104.28;5110389;28;20447;-74
2022/10/13 02:47:02;;;;;;;1.17;1.07;;;;;;;-143.84;66.61;45117.63;5110302;28;20427;-74
2022/10/13 02:49:30;;;;;;;3.83;1.70;;;;;;;-143.84;66.26;45104.28;5110457;28;20438;-73
2022/10/13 02:51:57;;;;;;;7.90;1.47;;;;;;;-143.84;66.23;45134.75;5110368;28;20551;-73
2022/10/13 02:54:25;;;;;;;1.10;0.90;;;;;;;-143.84;66.33;45125.22;5110285;28;20430;-73
2022/10/13 02:56:52;;;;;;;2.30;1.80;;;;;;;-143.84;66.43;45115.72;5110421;28;20434;-73
2022/10/13 02:59:19;;;;;;;2.13;1.30;;;;;;;-143.84;66.56;45117.63;5110133;28;20438;-74
2022/10/13 03:01:46;;;;;;;2.33;1.30;;;;;;;-143.84;66.40;45106.19;5110683;28;20453;-73
2022/10/13 03:04:13;;;;;;;2.37;1.70;;;;;;;-143.84;66.67;45111.91;5109977;28;20538;-74
2022/10/13 03:06:42;;;;;;;1.27;1.17;;;;;;;-143.84;66.84;45106.19;5110417;28;20496;-73
2022/10/13 03:09:10;;;;;;;1.57;1.47;;;;;;;-143.84;67.01;45108.09;5110048;28;20447;-74
2022/10/13 03:11:37;;;;;;;9.13;1.20;;;;;;;-143.84;67.27;45121.44;5109324;28;20486;-73
2022/10/13 03:14:04;;;;;;;8.07;1.50;;;;;;;-143.84;67.47;45113.81;5109705;28;20449;-74
2022/10/13 03:16:31;;;;;;;2.73;1.50;;;;;;;-143.84;67.70;45136.66;5109507;28;20499;-74
2022/10/13 03:18:58;;;;;;;6.00;1.50;;;;;;;-143.84;67.72;45110.00;5109567;28;20439;-74
2022/10/13 03:21:25;;;;;;;5.27;1.40;;;;;;;-143.84;67.84;45129.03;5109543;28;20431;-74
2022/10/13 03:23:54;;;;;;;2.00;1.60;;;;;;;-143.84;67.97;45110.00;5109350;28;20488;-74
2022/10/13 03:26:21;;;;;;;6.23;2.50;;;;;;;-143.84;67.89;45113.81;5110787;28;20467;-74
2022/10/13 03:28:50;;;;;;;3.20;1.40;;;;;;;-143.84;67.81;45111.91;5110314;28;20971;-74
2022/10/13 03:31:17;;;;;;;2.70;1.60;;;;;;;-143.84;67.84;45130.94;5109610;28;20503;-74
2022/10/13 03:33:45;;;;;;;3.67;1.60;;;;;;;-143.84;67.87;45136.66;5118853;28;20456;-74
2022/10/13 03:36:13;;;;;;;1.73;1.53;;;;;;;-143.84;67.98;45104.28;5129308;28;20474;-74
2022/10/13 03:38:40;;;;;;;2.27;1.20;;;;;;;-143.84;67.95;45096.66;5130066;28;20472;-74
2022/10/13 03:41:11;;;;;;;4.73;1.67;;;;;;;-143.84;67.63;45092.88;5129714;28;20445;-74
2022/10/13 03:43:43;;;;;;;1.60;1.47;;;;;;;-143.84;67.81;45117.63;5130036;28;20464;-74
2022/10/13 03:46:12;;;;;;;2.33;1.27;;;;;;;-143.84;67.76;45121.44;5129961;28;20487;-74
2022/10/13 03:48:40;;;;;;;1.43;1.33;;;;;;;-143.84;67.86;45106.19;5118347;28;20490;-75
2022/10/13 03:51:08;;;;;;;5.00;1.80;;;;;;;-143.84;67.78;45083.34;5108726;28;20861;-75
2022/10/13 03:53:35;;;;;;;2.43;1.83;;;;;;;-143.84;67.61;45104.28;5110578;28;20523;-76
2022/10/13 03:56:03;;;;;;;1.87;1.60;;;;;;;-143.84;67.58;45110.00;5111185;28;20431;-71
2022/10/13 03:58:34;;;;;;;2.80;1.87;;;;;;;-143.84;67.66;45117.63;5112131;28;20495;-78
2022/10/13 04:01:04;;;;;;;6.20;1.13;;;;;;;-143.84;67.63;45119.53;5111764;28;20427;-76
2022/10/13 04:03:32;;;;;;;2.77;1.43;;;;;;;-143.84;67.57;45129.03;5125207;28;21037;-76
2022/10/13 04:06:01;;;;;;;4.30;1.80;;;;;;;-143.84;67.70;45127.13;5130811;28;20475;-77
2022/10/13 04:08:28;;;;;;;8.43;1.50;;;;;;;-143.84;67.50;45132.84;5130185;28;20433;-76
2022/10/13 04:10:59;;;;;;;4.60;1.53;;;;;;;-143.84;67.93;45129.03;5130493;28;20482;-76
2022/10/13 04:13:27;;;;;;;2.37;1.70;;;;;;;-143.84;67.90;45079.53;5131461;28;20585;-77
2022/10/13 04:15:55;;;;;;;3.77;1.40;;;;;;;-143.84;68.03;45106.19;5130836;28;20478;-77
2022/10/13 04:18:22;;;;;;;3.37;1.60;;;;;;;-143.84;68.29;45098.56;5118221;28;20454;-75
2022/10/13 04:20:49;;;;;;;11.33;1.80;;;;;;;-143.84;68.27;45111.91;5127697;28;21044;-74
2022/10/13 04:23:19;;;;;;;4.10;1.20;;;;;;;-143.84;68.12;45129.03;5131861;27;20520;-73
2022/10/13 04:25:46;;;;;;;1.33;1.10;;;;;;;-143.84;68.56;45096.66;5134760;27;20940;-78
2022/10/13 04:28:13;;;;;;;1.60;1.33;;;;;;;-143.84;68.55;45121.44;5133805;27;20521;-70
2022/10/13 04:30:40;;;;;;;3.33;1.20;;;;;;;-143.84;68.91;45119.53;5133561;27;20788;-72
2022/10/13 04:33:09;;;;;;;2.33;1.20;;;;;;;-143.84;68.83;45106.19;5133393;27;20534;-74
2022/10/13 04:35:41;;;;;;;1.40;1.20;;;;;;;-143.84;68.92;45113.81;5133777;27;20444;-76
2022/10/13 04:38:08;;;;;;;4.63;1.77;;;;;;;-143.84;68.92;45138.56;5134257;27;20506;-74
2022/10/13 04:40:35;;;;;;;1.57;1.20;;;;;;;-143.84;69.00;45119.53;5134083;27;20497;-74
2022/10/13 04:43:02;;;;;;;4.93;1.70;;;;;;;-143.84;68.92;45129.03;5133817;27;20447;-74
2022/10/13 04:45:30;;;;;;;7.30;1.50;;;;;;;-143.84;68.91;45134.75;5133654;27;20958;-74
2022/10/13 04:47:57;;;;;;;3.17;1.80;;;;;;;-143.84;69.01;45119.53;5134125;27;20497;-75
2022/10/13 04:50:26;;;;;;;3.00;1.73;;;;;;;-143.84;69.06;45125.22;5133419;27;20441;-75
2022/10/13 04:52:53;;;;;;;3.90;1.10;;;;;;;-143.84;69.08;45102.38;5132963;27;20534;-75
2022/10/13 04:55:20;;;;;;;1.97;1.43;;;;;;;-143.84;69.03;45113.81;5132170;27;20434;-75
2022/10/13 04:57:47;;;;;;;2.47;1.70;;;;;;;-143.84;69.17;45096.66;5132798;27;20490;-75
2022/10/13 05:00:14;;;;;;;2.83;1.37;;;;;;;-143.84;69.17;45127.13;5133017;27;20497;-74
2022/10/13 05:02:42;;;;;;;9.30;1.60;;;;;;;-143.84;69.12;45102.38;5131865;27;20446;-75
2022/10/13 05:05:10;;;;;;;3.30;1.60;;;;;;;-143.84;69.05;45106.19;5131422;27;20449;-74
2022/10/13 05:07:38;;;;;;;3.23;1.43;;;;;;;-143.84;69.00;45129.03;5131231;27;20553;-74
2022/10/13 05:10:06;;;;;;;1.40;1.30;;;;;;;-143.84;69.06;45102.38;5130886;27;21075;-74
2022/10/13 05:12:38;;;;;;;1.20;1.10;;;;;;;-143.84;69.09;45111.91;5130865;27;20478;-74
2022/10/13 05:15:06;;;;;;;7.80;1.87;;;;;;;-143.84;69.00;45113.81;5131083;27;20437;-75
2022/10/13 05:17:34;;;;;;;5.37;1.70;;;;;;;-143.84;69.00;45111.91;5130809;27;20873;-74
2022/10/13 05:20:01;;;;;;;3.93;2.00;;;;;;;-143.84;69.09;45100.47;5132162;27;20443;-74
2022/10/13 05:22:31;;;;;;;4.70;1.67;;;;;;;-143.84;68.06;45111.91;5132529;27;20444;-74
2022/10/13 05:25:03;;;;;;;4.90;1.47;;;;;;;-143.84;66.47;45098.56;5132075;27;20449;-74
2022/10/13 05:27:30;;;;;;;1.67;1.50;;;;;;;-143.84;65.68;45092.88;5132211;27;20450;-74
2022/10/13 05:29:57;;;;;;;4.50;1.57;;;;;;;-143.84;64.23;45085.25;5131807;27;20496;-74
2022/10/13 05:32:24;;;;;;;8.87;2.20;;;;;;;-143.84;62.52;45077.63;5132046;27;20480;-74
2022/10/13 05:34:51;;;;;;;5.23;1.80;;;;;;;-143.84;61.80;45096.66;5131032;27;20444;-74
2022/10/13 05:37:21;;;;;;;2.00;1.90;;;;;;;-143.84;60.94;45087.16;5131215;27;20515;-74
2022/10/13 05:39:48;;;;;;;4.43;2.50;;;;;;;-143.84;58.97;45096.66;5119983;27;20446;-74
2022/10/13 05:42:17;;;;;;;11.27;2.17;;;;;;;-143.84;57.68;45087.16;5111345;28;20479;-74
2022/10/13 05:44:44;;;;;;;4.47;2.27;;;;;;;-143.84;57.19;45077.63;5110658;28;20447;-74
2022/10/13 05:47:13;;;;;;;4.30;2.37;;;;;;;-143.84;55.40;45085.25;5110978;28;20482;-74
2022/10/13 05:49:40;;;;;;;13.00;2.43;;;;;;;-143.84;54.49;45087.16;5111098;28;21078;-74
2022/10/13 05:52:10;;;;;;;2.53;2.07;;;;;;;-143.84;53.88;45043.34;5110819;28;20496;-74
2022/10/13 05:54:42;;;;;;;3.63;1.93;;;;;;;-143.84;53.46;45071.91;5110733;28;20526;-74
2022/10/13 05:57:13;;;;;;;5.40;1.50;;;;;;;-143.84;51.86;45119.53;5111127;28;20442;-74
2022/10/13 05:59:46;;;;;;;4.60;1.50;;;;;;;-143.84;51.44;45075.72;5115054;27;20959;-75
2022/10/13 06:02:18;;;;;;;1.47;1.33;;;;;;;-143.84;50.16;45064.31;5131391;27;20514;-75
2022/10/13 06:04:50;;;;;;;2.13;1.43;;;;;;;-143.84;49.32;45052.88;5129106;27;21046;-75
2022/10/13 06:07:21;;;;;;;5.23;1.60;;;;;;;-143.84;49.17;45071.91;5129378;27;20481;-75
2022/10/13 06:09:51;;;;;;;2.00;1.40;;;;;;;-143.84;48.20;45070.00;5130284;27;20491;-75
2022/10/13 06:12:18;;;;;;;1.80;1.57;;;;;;;-143.84;47.82;45052.88;5130425;27;20454;-75
2022/10/13 06:14:49;;;;;;;3.20;1.80;;;;;;;-143.84;46.72;45041.44;5130446;27;20453;-75
2022/10/13 06:17:20;;;;;;;2.17;1.60;;;;;;;-143.84;46.94;45045.25;5129494;27;20457;-75
2022/10/13 06:19:47;;;;;;;2.50;1.40;;;;;;;-143.84;46.12;45030.03;5129757;27;21761;-75
2022/10/13 06:22:14;;;;;;;3.20;1.30;;;;;;;-143.84;45.76;45033.84;5130216;27;20446;-75
2022/10/13 06:24:41;;;;;;;2.53;1.37;;;;;;;-143.84;45.73;45049.06;5130169;27;20872;-75
2022/10/13 06:27:12;;;;;;;2.00;1.37;;;;;;;-143.84;45.09;45054.78;5130174;27;20446;-75
2022/10/13 06:29:39;;;;;;;9.13;1.53;;;;;;;-143.84;44.29;45016.69;5130121;27;20442;-75
2022/10/13 06:32:08;;;;;;;1.87;1.43;;;;;;;-143.84;44.10;45030.03;5130533;27;20445;-75
2022/10/13 10:32:22;;;;;;;2.90;0.90;;;;;;;-143.84;40.88;45047.16;5090541;27;1527345;-73
2022/10/13 10:34:54;;;;;;;4.20;1.40;;;;;;;-143.84;40.98;45016.69;5128409;28;20446;-74
2022/10/13 10:37:36;;;;;;;2.73;1.00;;;;;;;-143.84;40.47;45033.84;5128077;28;20454;-74
2022/10/13 10:40:16;;;;;;;5.47;1.13;;;;;;;-143.84;39.96;45041.44;5122678;28;20522;-74
2022/10/13 10:43:06;;;;;;;7.17;1.53;;;;;;;-143.84;40.19;45030.03;5107748;28;20434;-74
2022/10/13 10:45:36;;;;;;;3.30;1.30;;;;;;;-143.84;39.69;45018.59;5107695;28;20426;-74
2022/10/13 10:48:12;;;;;;;10.10;0.90;;;;;;;-143.84;39.68;45037.66;5107755;28;21048;-74
2022/10/13 10:50:40;;;;;;;3.23;1.00;;;;;;;-143.84;39.83;45043.34;5107887;28;20474;-74
2022/10/13 10:53:14;;;;;;;1.30;0.90;;;;;;;-143.84;39.98;45050.97;5107540;28;20432;-74
2022/10/13 10:55:52;;;;;;;3.33;0.93;;;;;;;-143.84;39.98;45009.09;5107302;28;20431;-74
2022/10/13 10:58:27;;;;;;;1.87;1.07;;;;;;;-143.84;39.75;45033.84;5107155;28;20484;-74
2022/10/13 11:01:05;;;;;;;4.60;0.70;;;;;;;-143.84;39.60;45056.69;5106815;28;20446;-74
2022/10/13 11:03:43;;;;;;;1.67;0.77;;;;;;;-143.84;39.70;45028.13;5107084;28;20492;-74
2022/10/13 11:06:33;;;;;;;2.90;0.73;;;;;;;-143.84;40.35;45026.22;5107094;28;20439;-74
2022/10/13 11:09:01;;;;;;;6.47;1.50;;;;;;;-143.84;40.17;45031.94;5107086;28;21247;-74
2022/10/13 11:11:34;;;;;;;1.23;0.90;;;;;;;-143.84;39.78;45030.03;5106960;28;20535;-74
2022/10/13 11:14:18;;;;;;;0.90;0.70;;;;;;;-143.84;39.50;45020.50;5106888;28;21064;-74
2022/10/13 11:17:03;;;;;;;2.17;1.10;;;;;;;-143.84;38.92;45016.69;5106730;28;20438;-74
2022/10/13 11:19:34;;;;;;;5.00;0.90;;;;;;;-143.84;39.09;45024.31;5106978;28;21102;-74
2022/10/13 11:22:13;;;;;;;10.90;1.03;;;;;;;-143.84;39.04;45012.88;5107143;28;20519;-74
2022/10/13 11:24:58;;;;;;;1.77;0.90;;;;;;;-143.84;39.34;45041.44;5107564;28;20567;-74
2022/10/13 11:27:28;;;;;;;6.13;1.67;;;;;;;-143.84;38.51;44999.56;5106844;28;20450;-74
2022/10/13 11:29:58;;;;;;;11.87;2.10;;;;;;;-143.84;39.67;45031.94;5106659;28;20511;-74
2022/10/13 11:32:53;;;;;;;1.10;1.00;;;;;;;-143.84;39.40;45041.44;5106347;28;21018;-74
2022/10/13 11:35:27;;;;;;;1.30;0.80;;;;;;;-143.84;38.86;45037.66;5106740;28;20815;-74
2022/10/13 11:38:23;;;;;;;6.57;2.23;;;;;;;-143.84;39.31;45028.13;5106524;28;20526;-74
2022/10/13 11:41:09;;;;;;;3.73;1.30;;;;;;;-143.84;38.84;45033.84;5106430;28;21148;-74
2022/10/13 11:43:48;;;;;;;2.60;0.70;;;;;;;-143.84;38.72;45033.84;5092036;28;20489;-74
2022/10/13 11:46:39;;;;;;;1.93;0.70;;;;;;;-143.84;38.43;45037.66;5092783;28;20440;-74
2022/10/13 11:49:35;;;;;;;5.07;1.17;;;;;;;-143.84;38.83;45047.16;5092615;28;20443;-74
2022/10/13 11:52:27;;;;;;;1.10;1.00;;;;;;;-143.84;38.88;45043.34;5092640;28;20888;-74
2022/10/13 11:55:01;;;;;;;2.57;0.90;;;;;;;-143.84;39.61;45026.22;5092524;28;20455;-74
2022/10/13 11:57:31;;;;;;;1.30;0.87;;;;;;;-143.84;39.33;45024.31;5092701;28;20444;-74
2022/10/13 11:59:59;;;;;;;2.23;0.60;;;;;;;-143.84;38.12;45022.41;5092647;28;20921;-74
2022/10/13 12:02:27;;;;;;;3.40;0.73;;;;;;;-143.84;38.47;45026.22;5092900;28;20917;-74
2022/10/13 12:05:03;;;;;;;4.40;1.00;;;;;;;-143.84;39.06;45049.06;5092468;28;20436;-74
2022/10/13 12:07:36;;;;;;;1.80;0.73;;;;;;;-143.84;40.14;45018.59;5092111;28;21145;-74
2022/10/13 12:10:08;;;;;;;2.83;1.00;;;;;;;-143.84;40.48;45037.66;5092485;28;20443;-74
2022/10/13 12:12:35;;;;;;;6.73;1.10;;;;;;;-143.84;40.31;45039.53;5092499;28;20856;-74
2022/10/13 12:15:02;;;;;;;2.20;0.97;;;;;;;-143.84;41.21;45035.75;5092580;28;20506;-74
2022/10/13 12:17:31;;;;;;;0.93;0.60;;;;;;;-143.84;41.14;45041.44;5092490;28;20427;-74
2022/10/13 12:20:00;;;;;;;1.57;0.70;;;;;;;-143.84;40.40;45028.13;5092121;28;20439;-73
2022/10/13 12:22:28;;;;;;;7.77;1.13;;;;;;;-143.84;40.77;45028.13;5092149;28;21338;-74
2022/10/13 12:25:01;;;;;;;4.03;1.30;;;;;;;-143.84;41.03;45022.41;5092166;28;20454;-74
2022/10/13 12:27:31;;;;;;;1.10;0.93;;;;;;;-143.84;40.85;45028.13;5092008;28;20501;-74
2022/10/13 12:29:59;;;;;;;0.97;0.67;;;;;;;-143.84;40.46;45052.88;5092307;28;20462;-74
2022/10/13 12:32:27;;;;;;;1.33;1.20;;;;;;;-143.84;40.06;45041.44;5091761;28;20488;-74
2022/10/13 12:34:54;;;;;;;1.50;0.70;;;;;;;-143.84;40.86;45028.13;5092176;28;20500;-74
2022/10/13 12:37:29;;;;;;;1.47;0.80;;;;;;;-143.84;41.93;45033.84;5091821;28;20489;-74
2022/10/13 12:40:00;;;;;;;1.40;0.80;;;;;;;-143.84;42.87;45037.66;5091879;28;20450;-74
2022/10/13 12:42:31;;;;;;;1.20;0.93;;;;;;;-143.84;43.35;45052.88;5092167;28;20450;-74
2022/10/13 12:45:00;;;;;;;0.90;0.70;;;;;;;-143.84;43.01;45071.91;5091778;28;20435;-74
2022/10/13 12:47:40;;;;;;;1.90;0.60;;;;;;;-143.84;42.96;45031.94;5091861;28;21002;-74
2022/10/13 12:50:33;;;;;;;1.00;0.73;;;;;;;-143.84;42.97;45047.16;5091810;28;20929;-74
2022/10/13 12:53:10;;;;;;;1.10;0.70;;;;;;;-143.84;43.50;45052.88;5091313;28;20501;-74
2022/10/13 12:55:51;;;;;;;1.33;0.70;;;;;;;-143.84;43.53;45054.78;5091410;28;20510;-74
2022/10/13 12:58:22;;;;;;;2.90;0.60;;;;;;;-143.84;43.06;45045.25;5092053;28;20466;-74
2022/10/13 13:01:05;;;;;;;1.00;0.73;;;;;;;-143.84;43.27;45050.97;5091771;28;20440;-74
2022/10/13 13:03:34;;;;;;;3.27;0.60;;;;;;;-143.84;43.04;45037.66;5091676;28;20497;-74
2022/10/13 13:06:11;;;;;;;1.10;0.50;;;;;;;-143.84;42.41;45058.59;5091862;28;20829;-74
2022/10/13 13:08:38;;;;;;;0.97;0.60;;;;;;;-143.84;42.10;45050.97;5091816;28;20448;-74
2022/10/13 13:11:21;;;;;;;2.70;0.67;;;;;;;-143.84;42.06;45047.16;5091461;28;20483;-74
2022/10/13 13:13:49;;;;;;;1.30;0.70;;;;;;;-143.84;42.71;45033.84;5091271;28;20485;-73
2022/10/13 13:16:17;;;;;;;1.50;0.60;;;;;;;-143.84;42.76;45022.41;5091646;28;20436;-74
2022/10/13 13:18:45;;;;;;;0.97;0.60;;;;;;;-143.84;43.13;45041.44;5091747;28;20437;-74
2022/10/13 13:21:14;;;;;;;1.23;0.90;;;;;;;-143.84;43.51;45047.16;5091557;28;20519;-74
2022/10/13 13:23:44;;;;;;;1.37;0.70;;;;;;;-143.84;43.92;45066.22;5091750;28;20424;-74
2022/10/13 13:26:16;;;;;;;5.37;0.80;;;;;;;-143.84;43.45;45035.75;5091264;28;20481;-74
2022/10/13 13:28:45;;;;;;;1.10;0.63;;;;;;;-143.84;43.49;45047.16;5091050;28;20440;-73
2022/10/13 13:31:18;;;;;;;1.43;0.70;;;;;;;-143.84;43.11;45031.94;5091010;28;20488;-74
2022/10/13 13:33:46;;;;;;;0.90;0.63;;;;;;;-143.84;43.17;45047.16;5090972;28;21002;-74
2022/10/13 13:36:16;;;;;;;1.00;0.70;;;;;;;-143.84;43.39;45045.25;5091221;28;20432;-74
2022/10/13 13:38:43;;;;;;;1.00;0.53;;;;;;;-143.84;43.16;45035.75;5091078;28;20440;-74
2022/10/13 13:41:12;;;;;;;0.90;0.63;;;;;;;-143.84;43.33;45068.13;5090735;28;20979;-74
2022/10/13 13:43:41;;;;;;;1.67;0.83;;;;;;;-143.84;43.50;45062.41;5090906;28;20446;-74
2022/10/13 13:46:15;;;;;;;1.13;0.60;;;;;;;-143.84;44.58;45045.25;5090985;28;20493;-74
2022/10/13 13:48:42;;;;;;;1.40;0.90;;;;;;;-143.84;44.60;45075.72;5091014;28;20447;-74
2022/10/13 13:51:10;;;;;;;1.10;0.90;;;;;;;-143.84;44.87;45054.78;5090371;28;20471;-74
2022/10/13 13:53:39;;;;;;;4.37;0.93;;;;;;;-143.84;45.78;45083.34;5090393;28;20452;-75
2022/10/13 13:56:13;;;;;;;1.63;0.70;;;;;;;-143.84;44.97;45052.88;5088746;28;20436;-75
2022/10/13 13:59:28;;;;;;;3.03;0.70;;;;;;;-143.84;45.29;45079.53;5091163;28;20420;-75
2022/10/13 14:01:57;;;;;;;3.23;0.90;;;;;;;-143.84;45.41;45041.44;5090006;28;20443;-73
2022/10/13 14:04:24;;;;;;;1.10;0.90;;;;;;;-143.84;45.77;45079.53;5089036;28;20443;-74
2022/10/13 14:06:51;;;;;;;1.10;0.77;;;;;;;-143.84;46.31;45058.59;5090336;28;20843;-73
2022/10/13 14:09:19;;;;;;;2.20;0.80;;;;;;;-143.84;46.46;45056.69;5090786;28;20431;-72
2022/10/13 14:11:46;;;;;;;1.87;0.80;;;;;;;-143.84;46.49;45064.31;5090039;28;20484;-74
2022/10/13 14:14:13;;;;;;;0.97;0.60;;;;;;;-143.84;46.47;45037.66;5090179;28;20500;-74
2022/10/13 14:16:41;;;;;;;4.80;0.83;;;;;;;-143.84;47.31;45047.16;5089771;28;20965;-74
2022/10/13 14:19:10;;;;;;;3.17;0.50;;;;;;;-143.84;47.73;45060.50;5093487;28;20443;-74
2022/10/13 14:21:37;;;;;;;1.10;0.80;;;;;;;-143.84;46.83;45066.22;5089876;28;20471;-74
2022/10/13 14:24:05;;;;;;;1.50;0.80;;;;;;;-143.84;46.80;45071.91;5103841;28;20440;-74
2022/10/13 14:26:33;;;;;;;3.20;0.60;;;;;;;-143.84;47.45;45056.69;5103319;28;20512;-74
2022/10/13 14:29:00;;;;;;;5.17;1.00;;;;;;;-143.84;47.63;45047.16;5093658;28;20449;-74
2022/10/13 14:31:27;;;;;;;2.53;1.03;;;;;;;-143.84;47.63;45068.13;5098960;28;21095;-74
2022/10/13 14:33:54;;;;;;;1.67;0.70;;;;;;;-143.84;48.17;45062.41;5077436;28;20444;-74
2022/10/13 14:36:23;;;;;;;4.30;1.00;;;;;;;-143.84;48.63;45049.06;5100187;28;20504;-74
2022/10/13 14:38:51;;;;;;;3.77;0.90;;;;;;;-143.84;47.91;45054.78;5110695;28;20516;-74
2022/10/13 14:41:18;;;;;;;3.43;0.87;;;;;;;-143.84;48.14;45077.63;5096746;28;20525;-74
2022/10/13 14:43:45;;;;;;;4.00;0.83;;;;;;;-143.84;48.82;45054.78;5107146;28;20442;-74
2022/10/13 14:46:13;;;;;;;9.53;1.13;;;;;;;-143.84;49.46;45068.13;5095212;28;20431;-74
2022/10/13 14:48:40;;;;;;;4.70;1.37;;;;;;;-143.84;49.62;45056.69;5110684;28;20431;-74
2022/10/13 14:51:10;;;;;;;1.70;1.30;;;;;;;-143.84;49.41;45047.16;5109111;28;20447;-74
2022/10/13 14:53:41;;;;;;;1.13;1.03;;;;;;;-143.84;49.57;45056.69;5111230;28;20443;-74
2022/10/13 14:56:17;;;;;;;2.10;0.93;;;;;;;-143.84;49.45;45075.72;5090480;28;20440;-75
2022/10/13 14:58:44;;;;;;;2.70;0.80;;;;;;;-143.84;49.56;45071.91;5090793;28;20431;-74
2022/10/13 15:01:12;;;;;;;3.00;0.77;;;;;;;-143.84;49.89;45070.00;5091030;28;20990;-74
2022/10/13 15:03:39;;;;;;;5.63;0.80;;;;;;;-143.84;50.21;45070.00;5109249;28;20500;-74
2022/10/13 15:06:07;;;;;;;5.27;1.10;;;;;;;-143.84;50.54;45094.78;5103570;28;20528;-74
2022/10/13 15:08:34;;;;;;;1.93;0.80;;;;;;;-143.84;50.73;45049.06;5090473;28;20466;-74
2022/10/13 15:11:03;;;;;;;2.60;0.87;;;;;;;-143.84;50.67;45050.97;5104903;28;20427;-74
2022/10/13 15:13:30;;;;;;;2.30;1.23;;;;;;;-143.84;50.68;45079.53;5110962;28;20951;-74
2022/10/13 15:15:59;;;;;;;7.53;0.80;;;;;;;-143.84;50.66;45052.88;5098449;28;20924;-74
2022/10/13 15:18:27;;;;;;;0.90;0.67;;;;;;;-143.84;51.38;45056.69;5098262;28;20446;-74
2022/10/13 15:20:54;;;;;;;1.63;1.03;;;;;;;-143.84;52.18;45092.88;5114112;28;20453;-74
2022/10/13 15:23:22;;;;;;;3.47;1.13;;;;;;;-143.84;52.10;45068.13;5114533;28;20450;-74
2022/10/13 15:25:54;;;;;;;2.80;1.57;;;;;;;-143.84;52.55;45089.06;5114449;28;20435;-74
2022/10/13 15:28:24;;;;;;;2.00;1.40;;;;;;;-143.84;53.45;45056.69;5106391;27;20454;-74
2022/10/13 15:30:52;;;;;;;5.53;1.20;;;;;;;-143.84;53.21;45081.44;5104904;27;20494;-74
2022/10/13 15:33:19;;;;;;;5.37;1.63;;;;;;;-143.84;53.47;45100.47;5096567;27;20493;-74